Time;durP1;ratioP1;P1;durP2;ratioP2;P2;SDS_P1;SDS_P2;PMS_P1;PMS_P2;Temp;Humidity;BMP_temperature;BMP_pressure;BME280_temperature;BME280_humidity;BME280_pressure;Samples;Min_cycle;Max_cycle;Signal;HPM_P1;HPM_P2
2022/01/16 00:04:42;;;;;;;14.52;6.47;;;-0.10;99.90;;;;;;5209084;28;20374;-76
2022/01/16 00:07:13;;;;;;;12.35;6.22;;;0.00;99.90;;;;;;5208823;28;20029;-76
2022/01/16 00:09:47;;;;;;;11.48;6.20;;;-0.20;99.90;;;;;;5207617;28;20362;-75
2022/01/16 00:12:19;;;;;;;12.10;7.03;;;-0.30;99.90;;;;;;5208729;28;20495;-75
2022/01/16 00:14:51;;;;;;;13.50;6.43;;;-0.10;99.90;;;;;;5208590;28;20029;-75
2022/01/16 00:17:23;;;;;;;10.70;5.72;;;-0.40;99.90;;;;;;5208483;28;20030;-76
2022/01/16 00:19:54;;;;;;;11.38;6.30;;;-0.30;99.90;;;;;;5208666;28;20034;-75
2022/01/16 00:22:28;;;;;;;14.88;6.38;;;-0.20;99.90;;;;;;5208435;28;20029;-75
2022/01/16 00:25:02;;;;;;;17.63;7.57;;;-0.10;99.90;;;;;;5208491;28;20040;-75
2022/01/16 00:27:33;;;;;;;15.65;6.80;;;-0.30;99.90;;;;;;5208576;28;20029;-74
2022/01/16 00:30:04;;;;;;;15.48;7.20;;;-0.30;99.90;;;;;;5208242;28;20028;-75
2022/01/16 00:32:35;;;;;;;17.83;6.82;;;-0.40;99.90;;;;;;5208287;28;20029;-76
2022/01/16 00:35:07;;;;;;;13.15;6.43;;;0.00;99.90;;;;;;5208327;28;20444;-75
2022/01/16 00:37:41;;;;;;;11.55;5.53;;;-0.20;99.90;;;;;;5208048;28;20112;-75
2022/01/16 00:40:12;;;;;;;17.73;5.68;;;-0.20;99.90;;;;;;5208017;28;20431;-75
2022/01/16 00:42:43;;;;;;;11.45;5.32;;;-0.30;99.90;;;;;;5208201;28;20488;-75
2022/01/16 00:45:14;;;;;;;12.15;5.13;;;-0.20;99.90;;;;;;5207939;28;20025;-75
2022/01/16 00:47:45;;;;;;;14.30;5.40;;;-0.50;99.90;;;;;;5207713;28;20021;-75
2022/01/16 00:50:16;;;;;;;12.25;5.03;;;-0.50;99.90;;;;;;5207825;28;20100;-75
2022/01/16 00:52:47;;;;;;;11.35;5.10;;;-0.40;99.90;;;;;;5208008;28;20106;-74
2022/01/16 00:55:17;;;;;;;12.10;5.40;;;-0.30;99.90;;;;;;5208097;28;20021;-75
2022/01/16 00:57:48;;;;;;;11.70;4.57;;;-0.50;99.90;;;;;;5189929;28;20083;-74
2022/01/16 01:00:20;;;;;;;13.80;5.00;;;-0.40;99.90;;;;;;5207587;28;20473;-74
2022/01/16 01:02:54;;;;;;;7.43;4.75;;;-0.40;99.90;;;;;;5207734;28;20061;-75
2022/01/16 01:05:25;;;;;;;11.18;5.13;;;-0.30;99.90;;;;;;5207680;28;20029;-73
2022/01/16 01:07:55;;;;;;;9.50;4.22;;;-0.60;99.90;;;;;;5207443;28;20076;-73
2022/01/16 01:10:32;;;;;;;8.63;4.55;;;-0.40;99.90;;;;;;5207539;28;20024;-74
2022/01/16 01:15:59;;;;;;;8.65;5.15;;;-0.40;99.90;;;;;;5207523;28;20026;-74
2022/01/16 01:18:36;;;;;;;9.25;4.47;;;-0.60;99.90;;;;;;5207393;28;20038;-73
2022/01/16 01:21:24;;;;;;;9.27;4.95;;;-0.20;99.90;;;;;;5207428;28;20029;-73
2022/01/16 01:24:01;;;;;;;9.05;5.22;;;-0.50;99.90;;;;;;5207333;28;20112;-73
2022/01/16 01:26:37;;;;;;;14.43;5.40;;;-0.70;99.90;;;;;;5207349;28;20025;-73
2022/01/16 01:29:08;;;;;;;15.40;7.07;;;-0.60;99.90;;;;;;5207230;28;20025;-74
2022/01/16 01:31:40;;;;;;;11.13;5.38;;;-0.40;99.90;;;;;;5207252;28;20465;-74
2022/01/16 01:34:11;;;;;;;11.85;5.03;;;-0.70;99.90;;;;;;5206950;28;20030;-74
2022/01/16 01:36:42;;;;;;;13.60;5.32;;;-0.40;99.90;;;;;;5207106;28;20072;-74
2022/01/16 01:39:12;;;;;;;12.13;5.47;;;-0.30;99.90;;;;;;5207005;28;20065;-74
2022/01/16 01:41:44;;;;;;;20.58;8.32;;;-0.30;99.90;;;;;;5207062;28;20374;-74
2022/01/16 01:52:44;;;;;;;22.48;5.13;;;1.60;99.90;;;;;;5207258;28;20389;-75
2022/01/16 01:55:16;;;;;;;11.05;4.20;;;1.70;99.90;;;;;;5207107;28;20017;-75
2022/01/16 01:57:46;;;;;;;10.10;4.38;;;1.80;99.90;;;;;;5207110;28;20033;-77
2022/01/16 02:00:19;;;;;;;11.32;4.43;;;1.70;99.90;;;;;;5206354;28;20029;-75
2022/01/16 02:05:35;;;;;;;8.80;4.47;;;1.90;99.90;;;;;;5206905;28;20435;-76
2022/01/16 02:08:06;;;;;;;9.40;4.20;;;1.70;99.90;;;;;;5206686;28;20457;-76
2022/01/16 02:10:38;;;;;;;11.65;4.80;;;1.60;99.90;;;;;;5206671;28;20025;-75
2022/01/16 02:13:21;;;;;;;13.52;4.50;;;1.50;99.90;;;;;;5206661;28;20021;-75
2022/01/16 02:32:48;;;;;;;10.68;4.65;;;1.70;99.90;;;;;;5206678;28;20385;-76
2022/01/16 02:35:19;;;;;;;8.80;4.22;;;1.90;99.90;;;;;;5206844;28;20087;-75
2022/01/16 02:37:50;;;;;;;274.73;102.07;;;1.30;99.90;;;;;;5206341;28;20037;-76
2022/01/16 02:40:25;;;;;;;269.98;114.10;;;1.30;99.90;;;;;;5206549;28;20041;-75
2022/01/16 02:42:57;;;;;;;31.20;16.05;;;1.40;99.90;;;;;;5206460;28;20041;-75
2022/01/16 02:45:32;;;;;;;17.60;6.65;;;1.30;99.90;;;;;;5206249;28;20053;-76
2022/01/16 02:48:06;;;;;;;11.85;5.35;;;1.20;99.90;;;;;;5206605;28;20434;-75
2022/01/16 02:50:38;;;;;;;63.75;30.65;;;1.40;99.90;;;;;;5206357;28;20377;-75
2022/01/16 02:53:11;;;;;;;73.93;28.27;;;1.30;99.90;;;;;;5206326;28;20060;-76
2022/01/16 02:55:44;;;;;;;30.65;13.77;;;1.20;99.90;;;;;;5206214;28;20037;-76
2022/01/16 02:58:14;;;;;;;21.13;9.18;;;1.20;99.90;;;;;;5206253;28;20076;-77
2022/01/16 03:00:45;;;;;;;15.38;8.23;;;1.30;99.90;;;;;;5206115;28;20060;-77
2022/01/16 03:03:16;;;;;;;47.70;23.38;;;1.40;99.90;;;;;;5206461;28;20048;-77
2022/01/16 03:05:48;;;;;;;15.40;6.22;;;1.30;99.90;;;;;;5206395;28;20067;-77
2022/01/16 03:08:19;;;;;;;145.80;58.05;;;1.30;99.90;;;;;;5206314;28;20025;-77
2022/01/16 03:13:31;;;;;;;33.47;16.23;;;1.20;99.90;;;;;;5208004;28;20032;-76
2022/01/16 03:16:02;;;;;;;15.00;5.15;;;1.20;99.90;;;;;;5209709;28;20026;-77
2022/01/16 03:24:11;;;;;;;14.95;6.30;;;1.30;99.90;;;;;;5210061;28;20095;-77
2022/01/16 03:26:42;;;;;;;14.60;8.57;;;1.30;99.90;;;;;;5209715;28;20361;-76
2022/01/16 03:29:13;;;;;;;13.15;6.05;;;1.20;99.90;;;;;;5209681;28;20034;-76
2022/01/16 03:31:44;;;;;;;17.77;8.15;;;1.40;99.90;;;;;;5209415;28;20040;-76
2022/01/16 03:34:15;;;;;;;16.95;7.88;;;1.50;99.90;;;;;;5208245;28;20033;-76
2022/01/16 03:36:46;;;;;;;14.32;7.15;;;1.30;99.90;;;;;;5209414;28;20033;-77
2022/01/16 03:39:18;;;;;;;12.55;5.45;;;1.40;99.90;;;;;;5208034;28;20500;-77
2022/01/16 03:41:48;;;;;;;16.33;5.63;;;1.30;99.90;;;;;;5209381;28;20025;-77
2022/01/16 03:44:19;;;;;;;13.57;5.88;;;1.10;99.90;;;;;;5209427;28;20033;-77
2022/01/16 03:46:50;;;;;;;11.38;5.05;;;1.20;99.90;;;;;;5208952;28;20034;-76
2022/01/16 03:49:24;;;;;;;10.98;4.43;;;1.40;99.90;;;;;;5209215;28;20053;-76
2022/01/16 03:51:57;;;;;;;11.13;3.90;;;1.60;99.90;;;;;;5209036;28;20079;-77
2022/01/16 03:54:30;;;;;;;10.05;3.40;;;2.00;99.90;;;;;;5209086;28;20022;-76
2022/01/16 03:57:02;;;;;;;8.63;4.38;;;2.40;99.90;;;;;;5209007;28;20022;-77
2022/01/16 03:59:33;;;;;;;9.95;3.75;;;2.30;99.90;;;;;;5208973;28;20029;-76
2022/01/16 04:02:04;;;;;;;10.75;3.35;;;2.10;99.90;;;;;;5208745;28;20026;-76
2022/01/16 04:04:35;;;;;;;14.30;4.70;;;2.60;99.90;;;;;;5209055;28;20374;-76
2022/01/16 04:07:08;;;;;;;9.68;3.63;;;2.70;99.90;;;;;;5208788;28;20025;-76
2022/01/16 04:09:40;;;;;;;10.05;4.40;;;2.80;99.90;;;;;;5208670;28;20171;-76
2022/01/16 04:12:11;;;;;;;9.68;3.83;;;2.60;99.90;;;;;;5208610;28;20014;-76
2022/01/16 04:17:21;;;;;;;10.68;4.63;;;2.80;99.90;;;;;;5208600;28;20083;-77
2022/01/16 04:19:52;;;;;;;10.57;4.22;;;2.90;99.90;;;;;;5208698;28;20480;-77
2022/01/16 04:22:23;;;;;;;8.40;3.88;;;2.90;99.90;;;;;;5208390;28;20025;-77
2022/01/16 04:24:54;;;;;;;16.40;3.67;;;3.00;99.90;;;;;;5208066;28;20032;-76
2022/01/16 04:27:25;;;;;;;12.05;4.78;;;3.10;99.90;;;;;;5208382;28;20112;-76
2022/01/16 04:29:55;;;;;;;16.00;4.05;;;3.00;99.90;;;;;;5208331;28;20590;-76
2022/01/16 04:32:26;;;;;;;9.55;4.25;;;3.00;99.90;;;;;;5208344;28;20030;-76
2022/01/16 04:34:57;;;;;;;14.20;4.40;;;2.90;99.90;;;;;;5208314;28;20064;-76
2022/01/16 04:37:28;;;;;;;13.55;4.78;;;2.80;99.90;;;;;;5208207;28;20100;-76
2022/01/16 04:40:01;;;;;;;10.48;3.90;;;3.00;99.90;;;;;;5208105;28;20252;-76
2022/01/16 04:45:21;;;;;;;8.38;3.50;;;3.20;99.90;;;;;;5207729;28;20136;-76
2022/01/16 04:47:52;;;;;;;8.20;3.42;;;3.10;99.90;;;;;;5208091;28;20116;-76
2022/01/16 04:50:25;;;;;;;9.13;4.30;;;3.10;99.90;;;;;;5207964;28;20097;-76
2022/01/16 04:52:56;;;;;;;9.63;3.75;;;3.10;99.90;;;;;;5207902;28;20059;-76
2022/01/16 04:55:28;;;;;;;10.52;3.78;;;3.00;99.90;;;;;;5207834;28;20019;-76
2022/01/16 04:57:59;;;;;;;11.25;4.90;;;3.10;99.90;;;;;;5207657;28;20044;-74
2022/01/16 05:00:29;;;;;;;10.85;3.78;;;3.20;99.90;;;;;;5207692;28;20021;-75
2022/01/16 05:03:00;;;;;;;10.57;3.90;;;3.00;99.90;;;;;;5207724;28;20032;-74
2022/01/16 05:05:31;;;;;;;8.57;3.70;;;3.10;99.90;;;;;;5207695;28;20051;-75
2022/01/16 05:08:02;;;;;;;12.15;4.25;;;3.00;99.90;;;;;;5207753;28;20349;-74
2022/01/16 05:10:33;;;;;;;10.48;4.05;;;3.20;99.90;;;;;;5207615;28;20384;-75
2022/01/16 05:18:43;;;;;;;13.82;4.63;;;3.30;99.90;;;;;;5207468;28;20520;-75
2022/01/16 05:21:14;;;;;;;11.35;4.05;;;3.20;99.90;;;;;;5207274;28;20113;-76
2022/01/16 05:23:45;;;;;;;12.70;4.60;;;3.00;99.90;;;;;;5207580;28;20505;-74
2022/01/16 05:26:19;;;;;;;11.25;3.78;;;3.10;99.90;;;;;;5207321;28;20450;-74
2022/01/16 05:28:49;;;;;;;11.60;3.80;;;3.10;99.90;;;;;;5207312;28;20057;-76
2022/01/16 05:31:21;;;;;;;10.30;3.50;;;3.10;99.90;;;;;;5207243;28;20060;-74
2022/01/16 05:33:52;;;;;;;16.77;4.45;;;3.30;99.90;;;;;;5207230;28;20357;-75
2022/01/16 05:36:23;;;;;;;13.50;3.70;;;3.20;99.90;;;;;;5206317;28;20024;-74
2022/01/16 05:38:54;;;;;;;11.88;4.13;;;3.00;99.90;;;;;;5206932;28;20044;-75
2022/01/16 05:41:25;;;;;;;14.82;4.20;;;3.00;99.90;;;;;;5207189;28;20021;-75
2022/01/16 05:43:56;;;;;;;13.57;4.07;;;2.90;99.90;;;;;;5207103;28;20033;-75
2022/01/16 05:46:27;;;;;;;9.25;4.03;;;3.00;99.90;;;;;;5206772;28;20041;-75
2022/01/16 05:48:57;;;;;;;10.20;4.47;;;3.10;99.90;;;;;;5207068;28;20040;-74
2022/01/16 05:51:28;;;;;;;9.02;4.20;;;3.10;99.90;;;;;;5206881;28;20021;-74
2022/01/16 05:53:59;;;;;;;10.02;3.92;;;3.00;99.90;;;;;;5206976;28;20033;-74
2022/01/16 05:56:30;;;;;;;13.73;3.72;;;3.10;99.90;;;;;;5206896;28;20021;-75
2022/01/16 05:59:01;;;;;;;11.15;4.80;;;3.30;99.90;;;;;;5206830;28;20033;-75
2022/01/16 06:01:31;;;;;;;17.17;5.40;;;3.20;99.90;;;;;;5188849;28;20457;-75
2022/01/16 06:04:03;;;;;;;9.27;4.95;;;3.20;99.90;;;;;;5206785;28;20034;-74
2022/01/16 06:06:34;;;;;;;11.85;4.43;;;3.40;99.90;;;;;;5206805;28;20025;-75
2022/01/16 06:09:04;;;;;;;12.27;5.13;;;3.40;99.90;;;;;;5206664;28;20034;-75
2022/01/16 06:11:35;;;;;;;9.52;3.83;;;3.40;99.90;;;;;;5198530;28;20129;-75
2022/01/16 06:14:06;;;;;;;7.53;3.30;;;3.40;99.90;;;;;;5168495;28;20084;-75
2022/01/16 06:16:38;;;;;;;13.15;4.93;;;3.50;99.90;;;;;;5186180;28;20117;-75
2022/01/16 06:19:08;;;;;;;9.82;4.22;;;3.60;99.90;;;;;;5184791;28;20493;-75
2022/01/16 06:21:39;;;;;;;7.90;4.03;;;3.70;99.90;;;;;;5185957;28;20108;-75
2022/01/16 06:24:10;;;;;;;9.82;4.63;;;3.70;99.90;;;;;;5185972;28;20367;-75
2022/01/16 06:26:41;;;;;;;10.20;4.25;;;3.70;99.90;;;;;;5186068;28;20115;-75
2022/01/16 06:29:12;;;;;;;10.55;4.38;;;3.80;99.90;;;;;;5186096;28;20022;-74
2022/01/16 06:31:43;;;;;;;14.02;5.28;;;3.90;99.90;;;;;;5185946;28;20611;-75
2022/01/16 06:34:14;;;;;;;15.00;5.35;;;4.00;99.90;;;;;;5186142;28;20022;-75
2022/01/16 06:36:45;;;;;;;11.25;4.88;;;4.30;99.90;;;;;;5185917;28;20029;-76
2022/01/16 06:39:16;;;;;;;15.80;5.03;;;4.10;99.90;;;;;;5185891;28;20034;-75
2022/01/16 06:41:47;;;;;;;13.80;4.78;;;4.00;99.90;;;;;;5184704;28;20022;-76
2022/01/16 06:44:17;;;;;;;13.85;5.30;;;4.20;99.90;;;;;;5186193;28;20037;-76
2022/01/16 06:46:48;;;;;;;12.82;4.82;;;4.30;99.90;;;;;;5186417;28;20077;-77
2022/01/16 06:49:19;;;;;;;15.27;3.95;;;4.30;99.90;;;;;;5189620;28;20036;-76
2022/01/16 06:51:50;;;;;;;12.82;4.25;;;4.30;99.90;;;;;;5189738;28;20022;-76
2022/01/16 06:54:21;;;;;;;12.30;4.20;;;4.40;99.90;;;;;;5189537;28;20553;-76
2022/01/16 06:56:52;;;;;;;9.55;3.80;;;4.60;99.90;;;;;;5189802;28;20116;-78
2022/01/16 06:59:23;;;;;;;13.18;4.20;;;4.70;99.90;;;;;;5189464;28;20505;-78
2022/01/16 07:19:50;;;;;;;14.18;3.97;;;4.80;99.90;;;;;;5308581;27;20386;-76
2022/01/16 07:22:21;;;;;;;9.70;3.85;;;5.40;99.90;;;;;;5304500;28;20080;-74
2022/01/16 07:24:52;;;;;;;9.82;4.18;;;5.20;99.90;;;;;;5288475;28;20462;-73
2022/01/16 07:27:23;;;;;;;15.98;5.07;;;5.30;99.90;;;;;;5306556;28;20037;-73
2022/01/16 07:29:54;;;;;;;14.02;5.10;;;5.40;99.90;;;;;;5288182;28;20024;-74
2022/01/16 07:32:25;;;;;;;12.93;4.55;;;5.40;99.90;;;;;;5305819;28;20027;-75
2022/01/16 07:34:55;;;;;;;13.93;5.47;;;5.40;99.90;;;;;;5306167;28;20095;-76
2022/01/16 07:37:26;;;;;;;14.68;4.80;;;5.70;99.90;;;;;;5307468;28;20026;-75
2022/01/16 07:39:57;;;;;;;12.85;5.50;;;5.80;99.90;;;;;;5303795;28;20034;-74
2022/01/16 07:42:29;;;;;;;10.85;4.95;;;5.80;99.90;;;;;;5281611;28;20021;-74
2022/01/16 07:44:59;;;;;;;12.75;3.92;;;6.10;99.90;;;;;;5285759;28;20012;-75
2022/01/16 07:47:30;;;;;;;11.80;4.10;;;6.00;99.90;;;;;;5281711;28;20042;-74
2022/01/16 07:50:01;;;;;;;15.95;4.03;;;6.10;99.90;;;;;;5284956;28;20409;-74
2022/01/16 07:52:33;;;;;;;14.10;4.63;;;6.10;99.90;;;;;;5285822;28;20024;-74
2022/01/16 07:55:04;;;;;;;14.93;4.65;;;6.10;99.90;;;;;;5286168;28;20047;-75
2022/01/16 07:57:35;;;;;;;12.57;4.60;;;6.30;99.90;;;;;;5285553;28;20426;-75
2022/01/16 08:00:07;;;;;;;9.57;4.03;;;6.70;99.90;;;;;;5285994;28;20031;-76
2022/01/16 08:02:38;;;;;;;9.65;3.75;;;6.20;99.90;;;;;;5285191;28;20079;-75
2022/01/16 08:05:09;;;;;;;12.73;5.22;;;6.10;99.90;;;;;;5277401;28;20413;-76
2022/01/16 08:07:40;;;;;;;10.48;4.65;;;6.10;99.90;;;;;;5285355;28;20036;-76
2022/01/16 08:10:11;;;;;;;9.70;4.72;;;6.60;99.90;;;;;;5285293;28;20061;-75
2022/01/16 08:12:42;;;;;;;16.33;5.72;;;6.70;99.90;;;;;;5285211;28;20086;-76
2022/01/16 08:15:13;;;;;;;14.90;4.00;;;6.80;99.90;;;;;;5285578;28;20024;-75
2022/01/16 08:17:44;;;;;;;14.52;3.90;;;6.60;99.90;;;;;;5284763;28;20090;-76
2022/01/16 08:20:15;;;;;;;11.27;4.80;;;6.90;99.90;;;;;;5274056;28;20387;-75
2022/01/16 08:22:46;;;;;;;8.85;3.80;;;6.60;99.90;;;;;;5270607;28;20036;-74
2022/01/16 08:25:17;;;;;;;14.10;3.85;;;6.50;99.90;;;;;;5262180;28;20012;-75
2022/01/16 08:27:48;;;;;;;11.27;4.47;;;6.80;99.90;;;;;;5268794;28;20051;-75
2022/01/16 08:30:19;;;;;;;10.63;4.32;;;6.80;99.90;;;;;;5268589;28;20020;-74
2022/01/16 08:32:50;;;;;;;11.57;4.40;;;7.10;99.90;;;;;;5268559;28;20044;-73
2022/01/16 08:35:21;;;;;;;8.27;4.28;;;7.10;99.90;;;;;;5270558;28;20051;-72
2022/01/16 08:37:52;;;;;;;11.50;3.95;;;7.00;99.90;;;;;;5251793;28;20471;-74
2022/01/16 08:40:24;;;;;;;9.93;3.72;;;7.70;99.90;;;;;;5270401;28;20069;-75
2022/01/16 08:42:55;;;;;;;9.38;3.63;;;7.10;99.90;;;;;;5269802;28;20032;-75
2022/01/16 08:45:25;;;;;;;8.85;3.20;;;7.00;99.90;;;;;;5270384;28;20031;-75
2022/01/16 08:47:56;;;;;;;10.57;4.38;;;7.20;99.90;;;;;;5269067;28;20044;-75
2022/01/16 08:50:27;;;;;;;10.73;4.25;;;7.40;99.90;;;;;;5269733;28;20055;-75
2022/01/16 08:52:58;;;;;;;9.80;3.22;;;7.40;99.90;;;;;;5250822;28;20028;-74
2022/01/16 08:55:29;;;;;;;9.70;3.70;;;7.50;99.90;;;;;;5269638;28;20074;-73
2022/01/16 08:58:03;;;;;;;9.18;3.53;;;7.90;99.90;;;;;;5270026;28;20062;-71
2022/01/16 09:00:35;;;;;;;10.27;2.97;;;7.80;99.90;;;;;;5267504;28;20394;-72
2022/01/16 09:03:05;;;;;;;8.88;3.65;;;7.40;99.90;;;;;;5269801;28;20028;-71
2022/01/16 09:05:37;;;;;;;7.18;3.70;;;7.30;99.90;;;;;;5269980;28;20039;-72
2022/01/16 09:08:08;;;;;;;9.02;3.22;;;7.30;99.90;;;;;;5267700;28;20055;-76
2022/01/16 09:10:41;;;;;;;9.80;3.55;;;7.40;99.90;;;;;;5266671;28;20021;-71
2022/01/16 09:13:15;;;;;;;9.75;4.00;;;7.40;99.90;;;;;;5265031;28;20115;-72
2022/01/16 09:15:49;;;;;;;7.53;3.95;;;7.30;99.90;;;;;;5268356;28;20055;-73
2022/01/16 09:18:20;;;;;;;10.55;3.28;;;7.40;99.90;;;;;;5266409;28;20109;-73
2022/01/16 09:20:51;;;;;;;13.18;4.13;;;8.10;99.90;;;;;;5268934;28;20020;-72
2022/01/16 09:23:22;;;;;;;9.60;4.25;;;8.90;99.90;;;;;;5269579;28;20024;-72
2022/01/16 09:25:53;;;;;;;11.57;4.43;;;8.70;99.90;;;;;;5266572;28;20024;-72
2022/01/16 09:28:24;;;;;;;12.20;4.28;;;8.10;99.90;;;;;;5266700;28;20036;-72
2022/01/16 09:30:55;;;;;;;9.95;3.55;;;8.70;99.90;;;;;;5263260;28;20028;-71
2022/01/16 09:33:26;;;;;;;10.38;5.05;;;8.20;99.90;;;;;;5265112;28;20099;-71
2022/01/16 09:35:58;;;;;;;8.82;4.47;;;8.40;99.90;;;;;;5268256;28;20538;-72
2022/01/16 09:38:29;;;;;;;8.85;3.70;;;8.50;99.90;;;;;;5268437;28;20055;-72
2022/01/16 09:41:01;;;;;;;9.45;4.47;;;8.10;99.90;;;;;;5260938;28;20473;-72
2022/01/16 09:43:34;;;;;;;10.80;4.18;;;8.20;98.50;;;;;;5268529;28;20030;-72
2022/01/16 09:46:05;;;;;;;9.85;4.00;;;8.10;99.90;;;;;;5268099;28;20116;-77
2022/01/16 09:48:36;;;;;;;8.60;4.70;;;7.90;99.90;;;;;;5249916;28;20044;-76
2022/01/16 09:51:07;;;;;;;10.25;4.85;;;8.10;95.70;;;;;;5268896;28;20027;-76
2022/01/16 09:53:42;;;;;;;12.20;5.40;;;6.90;99.90;;;;;;5267105;28;20034;-72
2022/01/16 09:56:13;;;;;;;15.57;6.07;;;7.60;99.90;;;;;;5269009;28;20020;-77
2022/01/16 09:59:30;;;;;;;9.77;5.60;;;8.40;99.50;;;;;;5340917;27;20323;-76
2022/01/16 10:02:02;;;;;;;12.95;6.25;;;8.90;93.10;;;;;;5309834;27;20432;-77
2022/01/16 10:04:36;;;;;;;9.02;4.38;;;8.40;99.90;;;;;;5319703;27;20466;-75
2022/01/16 10:07:13;;;;;;;10.05;4.55;;;8.40;99.90;;;;;;5320382;27;20015;-77
2022/01/16 10:10:07;;;;;;;9.63;4.80;;;7.80;99.90;;;;;;5323591;27;20479;-76
2022/01/16 10:12:46;;;;;;;14.43;6.22;;;8.10;99.90;;;;;;5310285;27;20055;-76
2022/01/16 10:15:25;;;;;;;12.07;3.45;;;7.50;99.90;;;;;;5317719;27;20100;-77
2022/01/16 10:17:59;;;;;;;11.60;5.43;;;8.10;99.90;;;;;;5318289;27;20058;-76
2022/01/16 10:20:42;;;;;;;6.43;3.20;;;8.50;99.90;;;;;;5296836;27;20027;-70
2022/01/16 10:23:19;;;;;;;10.85;3.90;;;7.70;99.90;;;;;;5317233;27;20489;-71
2022/01/16 10:25:50;;;;;;;11.82;4.88;;;8.80;99.90;;;;;;5308800;27;20556;-71
2022/01/16 10:28:23;;;;;;;11.88;4.63;;;8.60;99.90;;;;;;5294560;28;20161;-72
2022/01/16 10:30:58;;;;;;;9.43;4.90;;;8.40;94.00;;;;;;5306693;27;20027;-71
2022/01/16 10:33:34;;;;;;;9.85;4.22;;;8.30;99.90;;;;;;5313865;27;20030;-71
2022/01/16 10:36:04;;;;;;;11.00;4.13;;;9.50;99.90;;;;;;5299629;27;20027;-70
2022/01/16 10:38:35;;;;;;;7.72;3.97;;;9.40;98.80;;;;;;5312107;27;20351;-72
2022/01/16 10:41:13;;;;;;;7.70;3.65;;;9.10;96.20;;;;;;5318318;27;20501;-72
2022/01/16 10:43:46;;;;;;;11.27;4.00;;;9.00;95.40;;;;;;5313038;27;20027;-71
2022/01/16 10:46:25;;;;;;;10.55;3.92;;;8.50;91.70;;;;;;5306713;27;20027;-73
2022/01/16 10:49:13;;;;;;;12.98;4.15;;;9.00;87.00;;;;;;5308681;27;20488;-73
2022/01/16 10:52:06;;;;;;;8.35;3.83;;;8.90;94.60;;;;;;5311357;27;20027;-71
2022/01/16 10:54:40;;;;;;;10.48;4.50;;;8.80;88.00;;;;;;5319199;27;20026;-72
2022/01/16 10:57:27;;;;;;;8.48;3.35;;;9.20;84.40;;;;;;5321910;27;20020;-72
2022/01/16 11:00:10;;;;;;;8.85;3.70;;;8.90;87.30;;;;;;5320290;27;20034;-70
2022/01/16 11:02:43;;;;;;;8.80;4.07;;;9.30;81.20;;;;;;5310150;27;20042;-70
2022/01/16 11:05:17;;;;;;;7.20;3.42;;;9.30;87.40;;;;;;5308954;27;20031;-71
2022/01/16 11:07:57;;;;;;;5.50;3.47;;;9.00;81.20;;;;;;5319260;27;20034;-71
2022/01/16 11:10:31;;;;;;;9.55;3.72;;;9.10;82.20;;;;;;5294132;27;20053;-73
2022/01/16 11:13:12;;;;;;;7.07;3.72;;;9.60;90.90;;;;;;5293604;27;20027;-71
2022/01/16 11:15:51;;;;;;;7.80;4.25;;;9.00;83.70;;;;;;5299842;27;20549;-70
2022/01/16 11:18:24;;;;;;;7.63;4.10;;;9.20;82.70;;;;;;5299433;27;20045;-70
2022/01/16 11:21:07;;;;;;;9.75;4.03;;;9.40;80.60;;;;;;5300265;27;20020;-71
2022/01/16 11:24:11;;;;;;;7.72;3.60;;;9.00;79.20;;;;;;5295963;27;20028;-72
2022/01/16 11:26:41;;;;;;;8.90;3.38;;;8.60;79.10;;;;;;5313213;27;20072;-73
2022/01/16 11:29:13;;;;;;;9.27;3.63;;;8.90;81.60;;;;;;5309390;27;20114;-73
2022/01/16 11:31:48;;;;;;;7.75;2.88;;;9.00;80.90;;;;;;5311257;27;20086;-70
2022/01/16 11:34:18;;;;;;;10.68;3.97;;;8.40;76.80;;;;;;5274151;28;20019;-69
2022/01/16 11:36:50;;;;;;;10.18;4.45;;;8.90;78.50;;;;;;5304128;27;20053;-73
2022/01/16 11:39:24;;;;;;;27.40;17.73;;;9.20;80.20;;;;;;5299035;27;20105;-71
2022/01/16 11:41:57;;;;;;;13.60;9.23;;;9.20;82.40;;;;;;5297899;27;20517;-70
2022/01/16 11:44:31;;;;;;;23.55;12.55;;;8.90;81.40;;;;;;5305528;27;20067;-71
2022/01/16 11:47:06;;;;;;;31.77;21.40;;;8.20;83.60;;;;;;5301317;27;20020;-75
2022/01/16 11:49:41;;;;;;;20.45;13.10;;;9.20;78.50;;;;;;5297587;27;20118;-71
2022/01/16 11:52:17;;;;;;;10.88;7.57;;;8.50;81.50;;;;;;5306000;27;20102;-71
2022/01/16 11:54:49;;;;;;;10.70;6.90;;;9.10;79.90;;;;;;5293051;27;20036;-72
2022/01/16 11:57:23;;;;;;;14.27;5.40;;;8.90;77.70;;;;;;5291285;28;20101;-70
2022/01/16 12:00:08;;;;;;;20.00;14.65;;;9.00;76.00;;;;;;5299203;27;20043;-75
2022/01/16 12:02:45;;;;;;;12.10;7.03;;;9.00;76.20;;;;;;5299164;27;20062;-71
2022/01/16 12:05:27;;;;;;;6.13;3.47;;;8.90;76.20;;;;;;5294219;27;20020;-77
2022/01/16 12:08:10;;;;;;;8.32;3.05;;;9.10;73.60;;;;;;5290622;27;20031;-75
2022/01/16 12:10:47;;;;;;;8.80;3.63;;;9.00;71.10;;;;;;5300217;27;20110;-74
2022/01/16 12:13:44;;;;;;;6.50;3.72;;;9.10;66.80;;;;;;5294363;27;20031;-76
2022/01/16 12:16:39;;;;;;;8.05;4.40;;;8.90;69.60;;;;;;5281587;27;20478;-74
2022/01/16 12:19:37;;;;;;;9.48;3.83;;;9.60;67.90;;;;;;5299534;27;20032;-76
2022/01/16 12:22:09;;;;;;;9.95;4.03;;;8.80;70.20;;;;;;5285218;27;20059;-76
2022/01/16 12:24:43;;;;;;;19.90;13.23;;;9.60;73.30;;;;;;5294963;27;20023;-76
2022/01/16 12:27:47;;;;;;;12.25;5.03;;;8.90;70.00;;;;;;5294043;27;20375;-77
2022/01/16 12:30:35;;;;;;;9.93;4.68;;;9.20;71.40;;;;;;5291491;27;20027;-77
2022/01/16 12:33:23;;;;;;;8.88;3.67;;;8.70;74.30;;;;;;5278372;28;20489;-77
2022/01/16 12:35:58;;;;;;;9.45;3.55;;;7.90;73.30;;;;;;5296537;27;20137;-77
2022/01/16 12:38:31;;;;;;;9.32;5.00;;;8.30;74.70;;;;;;5297712;27;20035;-76
2022/01/16 12:41:05;;;;;;;13.40;7.03;;;7.90;72.10;;;;;;5297169;27;20019;-76
2022/01/16 12:43:48;;;;;;;8.95;5.90;;;8.00;71.60;;;;;;5298231;27;20024;-75
2022/01/16 12:46:37;;;;;;;8.02;4.75;;;8.50;70.10;;;;;;5300062;27;20015;-77
2022/01/16 12:49:19;;;;;;;8.98;4.65;;;8.80;68.10;;;;;;5292072;27;20039;-76
2022/01/16 12:51:53;;;;;;;10.88;4.65;;;8.90;68.80;;;;;;5296182;27;20058;-74
2022/01/16 12:54:32;;;;;;;8.13;4.32;;;8.50;68.10;;;;;;5298209;27;20373;-76
2022/01/16 12:57:04;;;;;;;9.23;4.27;;;8.60;64.10;;;;;;5293914;27;20023;-76
2022/01/16 12:59:36;;;;;;;10.98;4.95;;;8.80;62.10;;;;;;5291507;27;20423;-74
2022/01/16 13:02:07;;;;;;;6.95;3.15;;;8.10;68.20;;;;;;5282491;27;20053;-73
2022/01/16 13:04:46;;;;;;;9.25;3.22;;;7.40;68.90;;;;;;5299453;27;20023;-77
2022/01/16 13:07:17;;;;;;;8.55;3.70;;;8.70;69.60;;;;;;5295036;27;20095;-77
2022/01/16 13:09:47;;;;;;;11.30;4.88;;;8.70;68.40;;;;;;5307214;27;20102;-73
2022/01/16 13:12:18;;;;;;;8.80;4.80;;;8.30;68.70;;;;;;5304211;27;20477;-75
2022/01/16 13:14:50;;;;;;;9.68;4.20;;;8.50;69.60;;;;;;5299923;27;20036;-75
2022/01/16 13:17:21;;;;;;;12.55;6.00;;;8.90;67.70;;;;;;5290450;27;20095;-73
2022/01/16 13:19:53;;;;;;;8.05;4.70;;;8.40;70.50;;;;;;5290666;27;20442;-71
2022/01/16 13:22:29;;;;;;;12.93;5.15;;;9.00;69.60;;;;;;5281738;27;20046;-74
2022/01/16 13:25:07;;;;;;;8.85;4.20;;;8.60;70.60;;;;;;5281870;27;20477;-74
2022/01/16 13:27:40;;;;;;;8.02;3.28;;;7.30;71.20;;;;;;5297204;27;20091;-70
2022/01/16 13:30:26;;;;;;;11.15;4.28;;;7.60;70.40;;;;;;5296968;27;20529;-75
2022/01/16 13:33:06;;;;;;;9.55;4.88;;;7.80;72.20;;;;;;5298131;27;20027;-70
2022/01/16 13:35:38;;;;;;;8.77;4.40;;;7.90;71.60;;;;;;5292926;27;20016;-75
2022/01/16 13:38:11;;;;;;;15.05;5.40;;;7.90;71.40;;;;;;5296372;27;20031;-75
2022/01/16 13:40:47;;;;;;;14.18;7.85;;;7.70;67.50;;;;;;5299620;27;20019;-71
2022/01/16 13:43:17;;;;;;;19.92;11.68;;;8.00;67.00;;;;;;5300208;27;20031;-75
2022/01/16 13:45:49;;;;;;;16.02;8.73;;;8.10;67.20;;;;;;5291095;27;20011;-72
2022/01/16 13:48:29;;;;;;;15.05;9.52;;;7.30;67.00;;;;;;5294390;27;20022;-70
2022/01/16 13:51:05;;;;;;;13.18;7.22;;;7.30;68.80;;;;;;5305952;27;20031;-75
2022/01/16 13:53:40;;;;;;;13.95;8.02;;;6.80;70.00;;;;;;5297705;27;20035;-75
2022/01/16 13:56:28;;;;;;;13.63;5.50;;;7.10;74.40;;;;;;5296608;27;20027;-75
2022/01/16 13:58:59;;;;;;;13.77;5.00;;;6.40;74.60;;;;;;5291582;28;20119;-76
2022/01/16 14:01:32;;;;;;;15.30;6.15;;;6.30;75.20;;;;;;5297521;28;20031;-72
2022/01/16 14:04:15;;;;;;;14.02;8.02;;;6.00;73.80;;;;;;5301948;28;20034;-76
2022/01/16 14:06:51;;;;;;;14.43;7.28;;;6.40;74.90;;;;;;5295916;28;20019;-73
2022/01/16 14:09:22;;;;;;;9.82;5.65;;;6.20;76.60;;;;;;5289659;28;20064;-72
2022/01/16 14:11:55;;;;;;;15.15;7.00;;;5.70;77.70;;;;;;5303214;28;20024;-77
2022/01/16 14:14:28;;;;;;;22.63;10.65;;;6.00;79.80;;;;;;5303751;28;20023;-74
2022/01/16 14:22:12;;;;;;;27.65;11.13;;;5.80;81.40;;;;;;5297489;28;20102;-76
2022/01/16 14:24:48;;;;;;;19.10;10.60;;;5.60;87.40;;;;;;5293838;28;20023;-76
2022/01/16 14:27:27;;;;;;;15.00;7.35;;;5.80;88.70;;;;;;5292110;28;20034;-77
2022/01/16 14:30:00;;;;;;;18.35;8.90;;;5.50;89.40;;;;;;5289579;28;20024;-78
2022/01/16 14:32:31;;;;;;;15.20;7.10;;;5.60;92.30;;;;;;5289778;28;20023;-78
2022/01/16 14:35:02;;;;;;;12.18;5.57;;;5.40;99.90;;;;;;5299450;28;20020;-78
2022/01/16 14:37:33;;;;;;;15.38;7.68;;;4.90;99.90;;;;;;5289643;28;20538;-78